sensor_id;sensor_type;location;lat;lon;timestamp;temperature;humidity
25074;DHT22;13066;52.042;5.648;2022-11-15T00:01:08;8.90;99.90
25074;DHT22;13066;52.042;5.648;2022-11-15T00:03:36;8.90;99.90
25074;DHT22;13066;52.042;5.648;2022-11-15T00:06:05;9.00;99.90
25074;DHT22;13066;52.042;5.648;2022-11-15T00:08:33;9.00;99.90
25074;DHT22;13066;52.042;5.648;2022-11-15T00:11:02;9.00;99.90
25074;DHT22;13066;52.042;5.648;2022-11-15T00:13:30;9.00;99.90
25074;DHT22;13066;52.042;5.648;2022-11-15T00:16:00;9.00;99.90
25074;DHT22;13066;52.042;5.648;2022-11-15T00:18:28;9.00;99.90
25074;DHT22;13066;52.042;5.648;2022-11-15T00:21:03;9.00;99.90
25074;DHT22;13066;52.042;5.648;2022-11-15T00:23:33;9.00;99.90
25074;DHT22;13066;52.042;5.648;2022-11-15T00:26:01;9.00;99.90
25074;DHT22;13066;52.042;5.648;2022-11-15T00:28:29;9.10;99.90
25074;DHT22;13066;52.042;5.648;2022-11-15T00:31:00;9.10;99.90
25074;DHT22;13066;52.042;5.648;2022-11-15T00:33:28;9.10;99.90
25074;DHT22;13066;52.042;5.648;2022-11-15T00:36:01;9.10;99.90
25074;DHT22;13066;52.042;5.648;2022-11-15T00:38:33;9.20;99.90
25074;DHT22;13066;52.042;5.648;2022-11-15T00:41:03;9.20;99.90
25074;DHT22;13066;52.042;5.648;2022-11-15T00:43:36;9.20;99.90
25074;DHT22;13066;52.042;5.648;2022-11-15T00:46:04;9.20;99.90
25074;DHT22;13066;52.042;5.648;2022-11-15T00:48:32;9.20;99.90
25074;DHT22;13066;52.042;5.648;2022-11-15T00:51:00;9.20;99.90
25074;DHT22;13066;52.042;5.648;2022-11-15T00:53:28;9.30;99.90
25074;DHT22;13066;52.042;5.648;2022-11-15T00:55:58;9.30;99.90
25074;DHT22;13066;52.042;5.648;2022-11-15T00:58:26;9.30;99.90
25074;DHT22;13066;52.042;5.648;2022-11-15T01:00:54;9.30;99.90
25074;DHT22;13066;52.042;5.648;2022-11-15T01:03:22;9.30;99.90
25074;DHT22;13066;52.042;5.648;2022-11-15T01:05:49;9.30;99.90
25074;DHT22;13066;52.042;5.648;2022-11-15T01:08:17;9.40;99.90
25074;DHT22;13066;52.042;5.648;2022-11-15T01:10:45;9.40;99.90
25074;DHT22;13066;52.042;5.648;2022-11-15T01:13:15;9.40;99.90
25074;DHT22;13066;52.042;5.648;2022-11-15T01:15:42;9.40;99.90
25074;DHT22;13066;52.042;5.648;2022-11-15T01:18:11;9.40;99.90
25074;DHT22;13066;52.042;5.648;2022-11-15T01:20:40;9.40;99.90
25074;DHT22;13066;52.042;5.648;2022-11-15T01:23:08;9.40;99.90
25074;DHT22;13066;52.042;5.648;2022-11-15T01:25:36;9.40;99.90
25074;DHT22;13066;52.042;5.648;2022-11-15T01:28:04;9.50;99.90
25074;DHT22;13066;52.042;5.648;2022-11-15T01:30:35;9.50;99.90
25074;DHT22;13066;52.042;5.648;2022-11-15T01:33:03;9.50;99.90
25074;DHT22;13066;52.042;5.648;2022-11-15T01:35:31;9.50;99.90
25074;DHT22;13066;52.042;5.648;2022-11-15T01:37:59;9.50;99.90
25074;DHT22;13066;52.042;5.648;2022-11-15T01:40:27;9.50;99.90
25074;DHT22;13066;52.042;5.648;2022-11-15T01:42:55;9.60;99.90
25074;DHT22;13066;52.042;5.648;2022-11-15T01:45:23;9.60;99.90
25074;DHT22;13066;52.042;5.648;2022-11-15T01:47:54;9.60;99.90
25074;DHT22;13066;52.042;5.648;2022-11-15T01:50:24;9.60;99.90
25074;DHT22;13066;52.042;5.648;2022-11-15T01:52:54;9.60;99.90
25074;DHT22;13066;52.042;5.648;2022-11-15T01:55:25;9.70;99.90
25074;DHT22;13066;52.042;5.648;2022-11-15T01:57:55;9.70;99.90
25074;DHT22;13066;52.042;5.648;2022-11-15T02:00:24;9.70;99.90
25074;DHT22;13066;52.042;5.648;2022-11-15T02:02:53;9.70;99.90
25074;DHT22;13066;52.042;5.648;2022-11-15T02:05:21;9.70;99.90
25074;DHT22;13066;52.042;5.648;2022-11-15T02:07:50;9.70;99.90
25074;DHT22;13066;52.042;5.648;2022-11-15T02:10:20;9.80;99.90
25074;DHT22;13066;52.042;5.648;2022-11-15T02:12:49;9.80;99.90
25074;DHT22;13066;52.042;5.648;2022-11-15T02:15:18;9.90;99.90
25074;DHT22;13066;52.042;5.648;2022-11-15T02:17:56;9.90;99.90
25074;DHT22;13066;52.042;5.648;2022-11-15T02:20:41;9.90;99.90
25074;DHT22;13066;52.042;5.648;2022-11-15T02:26:54;9.90;99.90
25074;DHT22;13066;52.042;5.648;2022-11-15T02:29:33;9.90;99.90
25074;DHT22;13066;52.042;5.648;2022-11-15T02:32:07;10.00;99.90
25074;DHT22;13066;52.042;5.648;2022-11-15T02:34:46;9.90;99.90
25074;DHT22;13066;52.042;5.648;2022-11-15T02:37:18;10.00;99.90
25074;DHT22;13066;52.042;5.648;2022-11-15T02:39:51;10.00;99.90
25074;DHT22;13066;52.042;5.648;2022-11-15T02:42:26;10.00;99.90
25074;DHT22;13066;52.042;5.648;2022-11-15T02:45:17;10.00;99.90
25074;DHT22;13066;52.042;5.648;2022-11-15T02:47:50;10.10;99.90
25074;DHT22;13066;52.042;5.648;2022-11-15T02:50:21;10.10;99.90
25074;DHT22;13066;52.042;5.648;2022-11-15T02:52:51;10.10;99.90
25074;DHT22;13066;52.042;5.648;2022-11-15T02:55:27;10.20;99.90
25074;DHT22;13066;52.042;5.648;2022-11-15T02:58:05;10.20;99.90
25074;DHT22;13066;52.042;5.648;2022-11-15T03:00:35;10.20;99.90
25074;DHT22;13066;52.042;5.648;2022-11-15T03:03:22;10.20;99.90
25074;DHT22;13066;52.042;5.648;2022-11-15T03:05:56;10.30;99.90
25074;DHT22;13066;52.042;5.648;2022-11-15T03:08:31;10.30;99.90
25074;DHT22;13066;52.042;5.648;2022-11-15T03:11:03;10.30;99.90
25074;DHT22;13066;52.042;5.648;2022-11-15T03:13:38;10.30;99.90
25074;DHT22;13066;52.042;5.648;2022-11-15T03:16:11;10.40;99.90
25074;DHT22;13066;52.042;5.648;2022-11-15T03:18:44;10.40;99.90
25074;DHT22;13066;52.042;5.648;2022-11-15T03:21:14;10.40;99.90
25074;DHT22;13066;52.042;5.648;2022-11-15T03:23:43;10.40;99.90
25074;DHT22;13066;52.042;5.648;2022-11-15T03:26:14;10.50;99.90
25074;DHT22;13066;52.042;5.648;2022-11-15T03:28:47;10.50;99.90
25074;DHT22;13066;52.042;5.648;2022-11-15T03:31:17;10.50;99.90
25074;DHT22;13066;52.042;5.648;2022-11-15T03:34:09;10.50;99.90
25074;DHT22;13066;52.042;5.648;2022-11-15T03:36:39;10.50;99.90
25074;DHT22;13066;52.042;5.648;2022-11-15T03:39:08;10.50;99.90
25074;DHT22;13066;52.042;5.648;2022-11-15T03:41:40;10.60;99.90
25074;DHT22;13066;52.042;5.648;2022-11-15T03:44:15;10.60;99.90
25074;DHT22;13066;52.042;5.648;2022-11-15T03:46:46;10.70;99.90
25074;DHT22;13066;52.042;5.648;2022-11-15T03:49:21;10.60;99.90
25074;DHT22;13066;52.042;5.648;2022-11-15T03:51:51;10.60;99.90
25074;DHT22;13066;52.042;5.648;2022-11-15T03:54:19;10.70;99.90
25074;DHT22;13066;52.042;5.648;2022-11-15T03:56:47;10.70;99.90
25074;DHT22;13066;52.042;5.648;2022-11-15T03:59:14;10.70;99.90
25074;DHT22;13066;52.042;5.648;2022-11-15T04:01:42;10.80;99.90
25074;DHT22;13066;52.042;5.648;2022-11-15T04:04:10;10.80;99.90
25074;DHT22;13066;52.042;5.648;2022-11-15T04:06:39;10.80;99.90
25074;DHT22;13066;52.042;5.648;2022-11-15T04:09:07;10.90;99.90
25074;DHT22;13066;52.042;5.648;2022-11-15T04:11:35;10.90;99.90
25074;DHT22;13066;52.042;5.648;2022-11-15T04:14:03;10.90;99.90
25074;DHT22;13066;52.042;5.648;2022-11-15T04:16:31;11.00;99.90
25074;DHT22;13066;52.042;5.648;2022-11-15T04:18:59;11.00;99.90
25074;DHT22;13066;52.042;5.648;2022-11-15T04:21:46;11.00;99.90
25074;DHT22;13066;52.042;5.648;2022-11-15T04:24:31;11.00;99.90
25074;DHT22;13066;52.042;5.648;2022-11-15T04:26:59;11.10;99.90
25074;DHT22;13066;52.042;5.648;2022-11-15T04:29:27;11.10;99.90
25074;DHT22;13066;52.042;5.648;2022-11-15T04:32:02;11.10;99.90
25074;DHT22;13066;52.042;5.648;2022-11-15T04:34:30;11.10;99.90
25074;DHT22;13066;52.042;5.648;2022-11-15T04:37:00;11.20;99.90
25074;DHT22;13066;52.042;5.648;2022-11-15T04:39:40;11.20;99.90
25074;DHT22;13066;52.042;5.648;2022-11-15T04:42:08;11.20;99.90
25074;DHT22;13066;52.042;5.648;2022-11-15T04:44:36;11.30;99.90
25074;DHT22;13066;52.042;5.648;2022-11-15T04:47:04;11.30;99.90
25074;DHT22;13066;52.042;5.648;2022-11-15T04:49:32;11.30;99.90
25074;DHT22;13066;52.042;5.648;2022-11-15T04:52:01;11.30;99.90
25074;DHT22;13066;52.042;5.648;2022-11-15T04:54:29;11.30;99.90
25074;DHT22;13066;52.042;5.648;2022-11-15T04:56:57;11.40;99.90
25074;DHT22;13066;52.042;5.648;2022-11-15T04:59:25;11.40;99.90
25074;DHT22;13066;52.042;5.648;2022-11-15T05:01:53;11.40;99.90
25074;DHT22;13066;52.042;5.648;2022-11-15T05:04:21;11.40;99.90
25074;DHT22;13066;52.042;5.648;2022-11-15T05:06:49;11.40;99.90
25074;DHT22;13066;52.042;5.648;2022-11-15T05:09:20;11.40;99.90
25074;DHT22;13066;52.042;5.648;2022-11-15T05:11:48;11.50;99.90
25074;DHT22;13066;52.042;5.648;2022-11-15T05:14:16;11.50;99.90
25074;DHT22;13066;52.042;5.648;2022-11-15T05:16:44;11.50;99.90
25074;DHT22;13066;52.042;5.648;2022-11-15T05:19:12;11.50;99.90
25074;DHT22;13066;52.042;5.648;2022-11-15T05:21:40;11.60;99.90
25074;DHT22;13066;52.042;5.648;2022-11-15T05:24:09;11.60;99.90
25074;DHT22;13066;52.042;5.648;2022-11-15T05:26:39;11.60;99.90
25074;DHT22;13066;52.042;5.648;2022-11-15T05:29:09;11.60;99.90
25074;DHT22;13066;52.042;5.648;2022-11-15T05:31:40;11.60;99.90
25074;DHT22;13066;52.042;5.648;2022-11-15T05:34:08;11.60;99.90
25074;DHT22;13066;52.042;5.648;2022-11-15T05:36:38;11.60;99.90
25074;DHT22;13066;52.042;5.648;2022-11-15T05:39:07;11.70;99.90
25074;DHT22;13066;52.042;5.648;2022-11-15T05:41:39;11.70;99.90
25074;DHT22;13066;52.042;5.648;2022-11-15T05:44:11;11.70;99.90
25074;DHT22;13066;52.042;5.648;2022-11-15T05:46:40;11.70;99.90
25074;DHT22;13066;52.042;5.648;2022-11-15T05:49:11;11.70;99.90
25074;DHT22;13066;52.042;5.648;2022-11-15T05:51:44;11.70;99.90
25074;DHT22;13066;52.042;5.648;2022-11-15T05:54:14;11.70;99.90
25074;DHT22;13066;52.042;5.648;2022-11-15T05:56:44;11.70;99.90
25074;DHT22;13066;52.042;5.648;2022-11-15T05:59:12;11.70;99.90
25074;DHT22;13066;52.042;5.648;2022-11-15T06:01:40;11.70;99.90
25074;DHT22;13066;52.042;5.648;2022-11-15T06:04:08;11.80;99.90
25074;DHT22;13066;52.042;5.648;2022-11-15T06:06:36;11.80;99.90
25074;DHT22;13066;52.042;5.648;2022-11-15T06:09:05;11.80;99.90
25074;DHT22;13066;52.042;5.648;2022-11-15T06:11:32;11.90;99.90
25074;DHT22;13066;52.042;5.648;2022-11-15T06:14:02;11.90;99.90
25074;DHT22;13066;52.042;5.648;2022-11-15T06:16:30;11.90;99.90
25074;DHT22;13066;52.042;5.648;2022-11-15T06:18:58;11.90;99.90
25074;DHT22;13066;52.042;5.648;2022-11-15T06:21:26;12.00;99.90
25074;DHT22;13066;52.042;5.648;2022-11-15T06:23:55;11.90;99.90
25074;DHT22;13066;52.042;5.648;2022-11-15T06:26:23;12.00;99.90
25074;DHT22;13066;52.042;5.648;2022-11-15T06:28:51;12.00;99.90
25074;DHT22;13066;52.042;5.648;2022-11-15T06:31:21;12.00;99.90
25074;DHT22;13066;52.042;5.648;2022-11-15T06:33:48;12.00;99.90
25074;DHT22;13066;52.042;5.648;2022-11-15T06:36:17;12.00;99.90
25074;DHT22;13066;52.042;5.648;2022-11-15T06:38:45;12.10;99.90
25074;DHT22;13066;52.042;5.648;2022-11-15T06:41:14;12.10;99.90
25074;DHT22;13066;52.042;5.648;2022-11-15T06:43:43;12.10;99.90
25074;DHT22;13066;52.042;5.648;2022-11-15T06:46:11;12.10;99.90
25074;DHT22;13066;52.042;5.648;2022-11-15T06:48:40;12.10;99.90
25074;DHT22;13066;52.042;5.648;2022-11-15T06:51:08;12.10;99.90
25074;DHT22;13066;52.042;5.648;2022-11-15T06:53:36;12.10;99.90
25074;DHT22;13066;52.042;5.648;2022-11-15T06:56:06;12.10;99.90
25074;DHT22;13066;52.042;5.648;2022-11-15T06:58:34;12.20;99.90
25074;DHT22;13066;52.042;5.648;2022-11-15T07:01:04;12.20;99.90
25074;DHT22;13066;52.042;5.648;2022-11-15T07:03:34;12.20;99.90
25074;DHT22;13066;52.042;5.648;2022-11-15T07:06:04;12.20;99.90
25074;DHT22;13066;52.042;5.648;2022-11-15T07:08:34;12.20;99.90
25074;DHT22;13066;52.042;5.648;2022-11-15T07:11:04;12.20;99.90
25074;DHT22;13066;52.042;5.648;2022-11-15T07:13:33;12.20;99.90
25074;DHT22;13066;52.042;5.648;2022-11-15T07:16:03;12.20;99.90
25074;DHT22;13066;52.042;5.648;2022-11-15T07:18:33;12.20;99.90
25074;DHT22;13066;52.042;5.648;2022-11-15T07:21:03;12.20;99.90
25074;DHT22;13066;52.042;5.648;2022-11-15T07:23:32;12.20;99.90
25074;DHT22;13066;52.042;5.648;2022-11-15T07:26:00;12.20;99.90
25074;DHT22;13066;52.042;5.648;2022-11-15T07:28:28;12.20;99.90
25074;DHT22;13066;52.042;5.648;2022-11-15T07:30:57;12.20;99.90
25074;DHT22;13066;52.042;5.648;2022-11-15T07:33:24;12.20;99.90
25074;DHT22;13066;52.042;5.648;2022-11-15T07:35:52;12.20;99.90
25074;DHT22;13066;52.042;5.648;2022-11-15T07:38:22;12.20;99.90
25074;DHT22;13066;52.042;5.648;2022-11-15T07:40:55;12.20;99.90
25074;DHT22;13066;52.042;5.648;2022-11-15T07:43:24;12.20;99.90
25074;DHT22;13066;52.042;5.648;2022-11-15T07:45:52;12.20;99.90
25074;DHT22;13066;52.042;5.648;2022-11-15T07:48:25;12.20;99.90
25074;DHT22;13066;52.042;5.648;2022-11-15T07:51:11;12.20;99.90
25074;DHT22;13066;52.042;5.648;2022-11-15T07:53:41;12.20;99.90
25074;DHT22;13066;52.042;5.648;2022-11-15T07:56:10;12.20;99.90
25074;DHT22;13066;52.042;5.648;2022-11-15T07:58:38;12.30;99.90
25074;DHT22;13066;52.042;5.648;2022-11-15T08:01:07;12.30;99.90
25074;DHT22;13066;52.042;5.648;2022-11-15T08:03:36;12.30;99.90
25074;DHT22;13066;52.042;5.648;2022-11-15T08:06:05;12.30;99.90
25074;DHT22;13066;52.042;5.648;2022-11-15T08:08:33;12.30;99.90
25074;DHT22;13066;52.042;5.648;2022-11-15T08:11:02;12.30;99.90
25074;DHT22;13066;52.042;5.648;2022-11-15T08:13:30;12.30;99.90
25074;DHT22;13066;52.042;5.648;2022-11-15T08:15:59;12.40;99.90
25074;DHT22;13066;52.042;5.648;2022-11-15T08:18:27;12.40;99.90
25074;DHT22;13066;52.042;5.648;2022-11-15T08:20:59;12.40;99.90
25074;DHT22;13066;52.042;5.648;2022-11-15T08:23:27;12.40;99.90
25074;DHT22;13066;52.042;5.648;2022-11-15T08:26:02;12.40;99.90
25074;DHT22;13066;52.042;5.648;2022-11-15T08:28:30;12.40;99.90
25074;DHT22;13066;52.042;5.648;2022-11-15T08:30:58;12.40;99.90
25074;DHT22;13066;52.042;5.648;2022-11-15T08:33:27;12.40;99.90
25074;DHT22;13066;52.042;5.648;2022-11-15T08:35:56;12.40;99.90
25074;DHT22;13066;52.042;5.648;2022-11-15T08:38:24;12.40;99.90
25074;DHT22;13066;52.042;5.648;2022-11-15T08:40:58;12.50;99.90
25074;DHT22;13066;52.042;5.648;2022-11-15T08:43:28;12.50;99.90
25074;DHT22;13066;52.042;5.648;2022-11-15T08:45:57;12.50;99.90
25074;DHT22;13066;52.042;5.648;2022-11-15T08:48:25;12.50;99.90
25074;DHT22;13066;52.042;5.648;2022-11-15T08:50:53;12.50;99.90
25074;DHT22;13066;52.042;5.648;2022-11-15T08:53:22;12.60;99.90
25074;DHT22;13066;52.042;5.648;2022-11-15T08:55:50;12.50;99.90
25074;DHT22;13066;52.042;5.648;2022-11-15T08:58:18;12.60;99.90
25074;DHT22;13066;52.042;5.648;2022-11-15T09:00:47;12.60;99.90
25074;DHT22;13066;52.042;5.648;2022-11-15T09:03:15;12.60;99.90
25074;DHT22;13066;52.042;5.648;2022-11-15T09:05:43;12.60;99.90
25074;DHT22;13066;52.042;5.648;2022-11-15T09:08:11;12.60;99.90
25074;DHT22;13066;52.042;5.648;2022-11-15T09:11:03;12.60;99.90
25074;DHT22;13066;52.042;5.648;2022-11-15T09:13:31;12.60;99.90
25074;DHT22;13066;52.042;5.648;2022-11-15T09:16:00;12.70;99.90
25074;DHT22;13066;52.042;5.648;2022-11-15T09:18:29;12.60;99.90
25074;DHT22;13066;52.042;5.648;2022-11-15T09:20:58;12.60;99.90
25074;DHT22;13066;52.042;5.648;2022-11-15T09:23:27;12.60;99.90
25074;DHT22;13066;52.042;5.648;2022-11-15T09:25:59;12.70;99.90
25074;DHT22;13066;52.042;5.648;2022-11-15T09:28:27;12.70;99.90
25074;DHT22;13066;52.042;5.648;2022-11-15T09:30:57;12.70;99.90
25074;DHT22;13066;52.042;5.648;2022-11-15T09:33:28;12.70;99.90
25074;DHT22;13066;52.042;5.648;2022-11-15T09:36:00;12.70;99.90
25074;DHT22;13066;52.042;5.648;2022-11-15T09:38:29;12.80;99.90
25074;DHT22;13066;52.042;5.648;2022-11-15T09:44:15;12.80;99.90
25074;DHT22;13066;52.042;5.648;2022-11-15T09:46:58;12.80;99.90
25074;DHT22;13066;52.042;5.648;2022-11-15T09:49:32;12.80;99.90
25074;DHT22;13066;52.042;5.648;2022-11-15T09:52:00;12.80;99.90
25074;DHT22;13066;52.042;5.648;2022-11-15T09:54:31;12.80;99.90
25074;DHT22;13066;52.042;5.648;2022-11-15T09:57:24;12.90;99.90
25074;DHT22;13066;52.042;5.648;2022-11-15T10:00:04;12.90;99.90
25074;DHT22;13066;52.042;5.648;2022-11-15T10:03:06;12.90;99.90
25074;DHT22;13066;52.042;5.648;2022-11-15T10:05:39;12.90;99.90
25074;DHT22;13066;52.042;5.648;2022-11-15T10:08:20;12.90;99.90
25074;DHT22;13066;52.042;5.648;2022-11-15T10:10:53;12.90;99.90
25074;DHT22;13066;52.042;5.648;2022-11-15T10:13:45;12.90;99.90
25074;DHT22;13066;52.042;5.648;2022-11-15T10:16:31;12.90;99.90
25074;DHT22;13066;52.042;5.648;2022-11-15T10:19:07;13.00;99.90
25074;DHT22;13066;52.042;5.648;2022-11-15T10:21:46;13.00;99.90
25074;DHT22;13066;52.042;5.648;2022-11-15T10:24:19;13.10;99.90
25074;DHT22;13066;52.042;5.648;2022-11-15T10:26:48;13.00;99.90
25074;DHT22;13066;52.042;5.648;2022-11-15T10:29:18;13.00;99.90
25074;DHT22;13066;52.042;5.648;2022-11-15T10:31:52;13.10;99.90
25074;DHT22;13066;52.042;5.648;2022-11-15T10:34:22;13.10;99.90
25074;DHT22;13066;52.042;5.648;2022-11-15T10:36:56;13.10;99.90
25074;DHT22;13066;52.042;5.648;2022-11-15T10:39:25;13.20;99.90
25074;DHT22;13066;52.042;5.648;2022-11-15T10:41:53;13.20;99.90
25074;DHT22;13066;52.042;5.648;2022-11-15T10:44:25;13.20;99.90
25074;DHT22;13066;52.042;5.648;2022-11-15T10:47:23;13.20;99.90
25074;DHT22;13066;52.042;5.648;2022-11-15T10:49:57;13.20;99.90
25074;DHT22;13066;52.042;5.648;2022-11-15T10:52:27;13.10;99.90
25074;DHT22;13066;52.042;5.648;2022-11-15T10:54:59;13.20;99.90
25074;DHT22;13066;52.042;5.648;2022-11-15T10:57:31;13.20;99.90
25074;DHT22;13066;52.042;5.648;2022-11-15T11:00:05;13.20;99.90
25074;DHT22;13066;52.042;5.648;2022-11-15T11:02:35;13.30;99.90
25074;DHT22;13066;52.042;5.648;2022-11-15T11:05:06;13.30;99.90
25074;DHT22;13066;52.042;5.648;2022-11-15T11:07:35;13.30;99.90
25074;DHT22;13066;52.042;5.648;2022-11-15T11:10:18;13.30;99.90
25074;DHT22;13066;52.042;5.648;2022-11-15T11:13:14;13.30;99.90
25074;DHT22;13066;52.042;5.648;2022-11-15T11:15:44;13.30;99.90
25074;DHT22;13066;52.042;5.648;2022-11-15T11:18:18;13.30;99.90
25074;DHT22;13066;52.042;5.648;2022-11-15T11:20:52;13.30;99.90
25074;DHT22;13066;52.042;5.648;2022-11-15T11:23:36;13.30;99.90
25074;DHT22;13066;52.042;5.648;2022-11-15T11:26:22;13.40;99.90
25074;DHT22;13066;52.042;5.648;2022-11-15T11:28:59;13.40;99.90
25074;DHT22;13066;52.042;5.648;2022-11-15T11:31:38;13.40;99.90
25074;DHT22;13066;52.042;5.648;2022-11-15T11:34:15;13.40;99.90
25074;DHT22;13066;52.042;5.648;2022-11-15T11:36:49;13.40;99.90
25074;DHT22;13066;52.042;5.648;2022-11-15T11:39:31;13.40;99.90
25074;DHT22;13066;52.042;5.648;2022-11-15T11:42:10;13.40;99.90
25074;DHT22;13066;52.042;5.648;2022-11-15T11:44:51;13.40;99.90
25074;DHT22;13066;52.042;5.648;2022-11-15T11:47:24;13.40;99.90
25074;DHT22;13066;52.042;5.648;2022-11-15T11:49:55;13.40;99.90
25074;DHT22;13066;52.042;5.648;2022-11-15T11:52:29;13.40;99.90
25074;DHT22;13066;52.042;5.648;2022-11-15T11:55:02;13.40;99.90
25074;DHT22;13066;52.042;5.648;2022-11-15T11:57:38;13.40;99.90
25074;DHT22;13066;52.042;5.648;2022-11-15T12:00:17;13.40;99.90
25074;DHT22;13066;52.042;5.648;2022-11-15T12:03:01;13.40;99.90
25074;DHT22;13066;52.042;5.648;2022-11-15T12:05:34;13.40;99.90
25074;DHT22;13066;52.042;5.648;2022-11-15T12:08:23;13.40;99.90
25074;DHT22;13066;52.042;5.648;2022-11-15T12:11:01;13.40;99.90
25074;DHT22;13066;52.042;5.648;2022-11-15T12:13:31;13.40;99.90
25074;DHT22;13066;52.042;5.648;2022-11-15T12:16:08;13.40;99.90
25074;DHT22;13066;52.042;5.648;2022-11-15T12:18:38;13.40;99.90
25074;DHT22;13066;52.042;5.648;2022-11-15T12:21:13;13.40;99.90
25074;DHT22;13066;52.042;5.648;2022-11-15T12:23:46;13.40;99.90
25074;DHT22;13066;52.042;5.648;2022-11-15T12:26:19;13.40;99.90
25074;DHT22;13066;52.042;5.648;2022-11-15T12:28:52;13.40;99.90
25074;DHT22;13066;52.042;5.648;2022-11-15T12:31:38;13.40;99.90
25074;DHT22;13066;52.042;5.648;2022-11-15T12:34:13;13.30;99.90
25074;DHT22;13066;52.042;5.648;2022-11-15T12:36:44;13.30;99.90
25074;DHT22;13066;52.042;5.648;2022-11-15T12:39:13;13.30;99.90
25074;DHT22;13066;52.042;5.648;2022-11-15T12:41:45;13.30;99.90
25074;DHT22;13066;52.042;5.648;2022-11-15T12:44:57;13.30;99.90
25074;DHT22;13066;52.042;5.648;2022-11-15T12:47:26;13.30;99.90
25074;DHT22;13066;52.042;5.648;2022-11-15T12:49:55;13.30;99.90
25074;DHT22;13066;52.042;5.648;2022-11-15T12:52:22;13.30;99.90
25074;DHT22;13066;52.042;5.648;2022-11-15T12:54:54;13.40;99.90
25074;DHT22;13066;52.042;5.648;2022-11-15T12:57:34;13.40;99.90
25074;DHT22;13066;52.042;5.648;2022-11-15T13:03:25;13.40;99.90
25074;DHT22;13066;52.042;5.648;2022-11-15T13:06:04;13.40;99.90
25074;DHT22;13066;52.042;5.648;2022-11-15T13:08:36;13.40;99.90
25074;DHT22;13066;52.042;5.648;2022-11-15T13:11:42;13.40;99.90
25074;DHT22;13066;52.042;5.648;2022-11-15T13:14:54;13.40;99.90
25074;DHT22;13066;52.042;5.648;2022-11-15T13:17:36;13.40;99.90
25074;DHT22;13066;52.042;5.648;2022-11-15T13:20:25;13.30;99.90
25074;DHT22;13066;52.042;5.648;2022-11-15T13:23:02;13.30;99.90
25074;DHT22;13066;52.042;5.648;2022-11-15T13:28:43;13.30;99.90
25074;DHT22;13066;52.042;5.648;2022-11-15T13:31:34;13.30;99.90
25074;DHT22;13066;52.042;5.648;2022-11-15T13:34:16;13.30;99.90
25074;DHT22;13066;52.042;5.648;2022-11-15T13:37:09;13.30;99.90
25074;DHT22;13066;52.042;5.648;2022-11-15T13:39:40;13.30;99.90
25074;DHT22;13066;52.042;5.648;2022-11-15T13:42:14;13.30;99.90
25074;DHT22;13066;52.042;5.648;2022-11-15T13:44:55;13.30;99.90
25074;DHT22;13066;52.042;5.648;2022-11-15T13:47:26;13.30;99.90
25074;DHT22;13066;52.042;5.648;2022-11-15T13:49:57;13.30;99.90
25074;DHT22;13066;52.042;5.648;2022-11-15T13:52:30;13.30;99.90
25074;DHT22;13066;52.042;5.648;2022-11-15T13:55:01;13.30;99.90
25074;DHT22;13066;52.042;5.648;2022-11-15T13:57:38;13.30;99.90
25074;DHT22;13066;52.042;5.648;2022-11-15T14:00:32;13.30;99.90
25074;DHT22;13066;52.042;5.648;2022-11-15T14:03:17;13.30;99.90
25074;DHT22;13066;52.042;5.648;2022-11-15T14:06:02;13.30;99.90
25074;DHT22;13066;52.042;5.648;2022-11-15T14:08:31;13.30;99.90
25074;DHT22;13066;52.042;5.648;2022-11-15T14:11:08;13.20;99.90
25074;DHT22;13066;52.042;5.648;2022-11-15T14:13:37;13.20;99.90
25074;DHT22;13066;52.042;5.648;2022-11-15T14:16:19;13.20;99.90
25074;DHT22;13066;52.042;5.648;2022-11-15T14:18:50;13.30;99.90
25074;DHT22;13066;52.042;5.648;2022-11-15T14:21:18;13.20;99.90
25074;DHT22;13066;52.042;5.648;2022-11-15T14:23:47;13.20;99.90
25074;DHT22;13066;52.042;5.648;2022-11-15T14:26:30;13.20;99.90
25074;DHT22;13066;52.042;5.648;2022-11-15T14:29:21;13.20;99.90
25074;DHT22;13066;52.042;5.648;2022-11-15T14:31:49;13.20;99.90
25074;DHT22;13066;52.042;5.648;2022-11-15T14:34:19;13.20;99.90
25074;DHT22;13066;52.042;5.648;2022-11-15T14:36:48;13.20;99.90
25074;DHT22;13066;52.042;5.648;2022-11-15T14:39:16;13.20;99.90
25074;DHT22;13066;52.042;5.648;2022-11-15T14:41:44;13.20;99.90
25074;DHT22;13066;52.042;5.648;2022-11-15T14:44:12;13.20;99.90
25074;DHT22;13066;52.042;5.648;2022-11-15T14:46:44;13.20;99.90
25074;DHT22;13066;52.042;5.648;2022-11-15T14:49:13;13.10;99.90
25074;DHT22;13066;52.042;5.648;2022-11-15T14:51:43;13.20;99.90
25074;DHT22;13066;52.042;5.648;2022-11-15T14:54:11;13.20;99.90
25074;DHT22;13066;52.042;5.648;2022-11-15T14:56:39;13.20;99.90
25074;DHT22;13066;52.042;5.648;2022-11-15T14:59:08;13.20;99.90
25074;DHT22;13066;52.042;5.648;2022-11-15T15:01:35;13.20;99.90
25074;DHT22;13066;52.042;5.648;2022-11-15T15:04:03;13.20;99.90
25074;DHT22;13066;52.042;5.648;2022-11-15T15:06:31;13.20;99.90
25074;DHT22;13066;52.042;5.648;2022-11-15T15:09:01;13.20;99.90
25074;DHT22;13066;52.042;5.648;2022-11-15T15:11:30;13.20;99.90
25074;DHT22;13066;52.042;5.648;2022-11-15T15:13:58;13.20;99.90
25074;DHT22;13066;52.042;5.648;2022-11-15T15:16:27;13.20;99.90
25074;DHT22;13066;52.042;5.648;2022-11-15T15:18:55;13.20;99.90
25074;DHT22;13066;52.042;5.648;2022-11-15T15:21:24;13.20;99.90
25074;DHT22;13066;52.042;5.648;2022-11-15T15:24:03;13.20;99.90
25074;DHT22;13066;52.042;5.648;2022-11-15T15:26:30;13.20;99.90
25074;DHT22;13066;52.042;5.648;2022-11-15T15:29:01;13.20;99.90
25074;DHT22;13066;52.042;5.648;2022-11-15T15:31:29;13.20;99.90
25074;DHT22;13066;52.042;5.648;2022-11-15T15:33:57;13.20;99.90
25074;DHT22;13066;52.042;5.648;2022-11-15T15:36:24;13.20;99.90
25074;DHT22;13066;52.042;5.648;2022-11-15T15:38:52;13.20;99.90
25074;DHT22;13066;52.042;5.648;2022-11-15T15:41:23;13.20;99.90
25074;DHT22;13066;52.042;5.648;2022-11-15T15:43:51;13.20;99.90
25074;DHT22;13066;52.042;5.648;2022-11-15T15:46:19;13.20;99.90
25074;DHT22;13066;52.042;5.648;2022-11-15T15:48:47;13.20;99.90
25074;DHT22;13066;52.042;5.648;2022-11-15T15:51:15;13.20;99.90
25074;DHT22;13066;52.042;5.648;2022-11-15T15:53:46;13.20;99.90
25074;DHT22;13066;52.042;5.648;2022-11-15T15:56:14;13.20;99.90
25074;DHT22;13066;52.042;5.648;2022-11-15T15:58:43;13.20;99.90
25074;DHT22;13066;52.042;5.648;2022-11-15T16:01:11;13.20;99.90
25074;DHT22;13066;52.042;5.648;2022-11-15T16:03:40;13.20;99.90
25074;DHT22;13066;52.042;5.648;2022-11-15T16:09:06;13.20;99.90
25074;DHT22;13066;52.042;5.648;2022-11-15T16:11:41;13.10;99.90
25074;DHT22;13066;52.042;5.648;2022-11-15T16:14:11;13.20;99.90
25074;DHT22;13066;52.042;5.648;2022-11-15T16:16:39;13.20;99.90
25074;DHT22;13066;52.042;5.648;2022-11-15T16:19:09;13.20;99.90